x

Buoy B01 - Western Maine Shelf (44030) Wave Buoy

8:04 - Thu 22nd Jun 2017 All times are EDT. -4 hours from GMT.

  • Sig Wave height 1.6ft
  • Peak Period 6s
  • Wind
    2mph, 4mph gusts
  • Sea Temp 54°f
  • Luft Temp 56°f
  • Sea Pressure 1014mb
  • Buoy B01 - Western Maine Shelf
  • Buoy B01 - Western Maine Shelf

More Historic Weather Station data

Upgrade to MSW Pro to gain access to the past 30 days of data for over 8000 Wavebouys and Weather Stations around the globe.

Join Pro

Comparision Forecast

View Surf forecast
   
Do 06/22 8:04 1.6ft 6s 2 4 mph 1014mb 54f 56f
7:04 1.6ft 6s 7 7 mph 1013.8mb 54f 58f
6:04 2ft 5s 7 7 mph 1013.3mb 54f 60f
5:04 2ft 6s 4 7 mph 1013mb 54f 60f
4:04 1.6ft 6s 4 7 mph 1012.5mb 55f 58f
3:04 2ft 6s 4 7 mph 1012.2mb 56f 59f
2:04 2ft 5s 9 9 mph 1012mb 56f 60f
1:04 2.5ft 5s 9 9 mph 1011.9mb 56f 59f
12:04 2.5ft 8s 11 11 mph 1011.5mb 56f 60f
Mi 06/21 11:04 2.5ft 8s 7 9 mph 1010.9mb 56f 59f
10:04 2.5ft 8s 7 7 mph 1010.9mb 54f 59f
9:04 2.5ft 8s 9 9 mph 1010mb 54f 64f
8:04 2.5ft 6s 9 9 mph 1009.4mb 54f 62f
7:04 3ft 8s 9 11 mph 1009.2mb 54f 64f
6:04 3ft 8s 11 13 mph 1008.7mb 54f 65f
5:04 2.5ft 6s 11 13 mph 1008.4mb 53f 65f
4:04 2.5ft 8s 9 11 mph 1008.1mb 53f 63f
3:04 2.5ft 8s 11 13 mph 1008.3mb 53f 64f
2:04 3ft 8s 11 11 mph 1008.6mb 53f 63f
1:04 2.5ft 8s 11 13 mph 1008.7mb 54f 63f
12:04 2.5ft 5s 9 11 mph 1009.2mb 54f 59f
11:04 2.5ft 5s 9 11 mph 1009.5mb 53f 58f
10:04 2.5ft 8s 7 9 mph 1009.8mb 53f 57f
9:04 2.5ft 8s 7 9 mph 1010.5mb 53f 56f
8:04 2.5ft 6s 7 9 mph 1011.1mb 53f 55f
7:04 3ft 8s 7 7 mph 1011.3mb 52f 55f
6:04 3ft 6s 11 11 mph 1011.5mb 53f 56f
5:04 3ft 6s 9 9 mph 1011.3mb 53f 56f
4:04 3ft 6s 9 11 mph 1011.2mb 53f 56f
3:04 3ft 8s 7 9 mph 1011.5mb 53f 57f
2:04 3ft 6s 7 9 mph 1011.6mb 53f 56f
1:04 3ft 6s 9 11 mph 1011.7mb 53f 58f
Di 06/20 11:04 3.5ft 6s 9 11 mph 1011.5mb 53f 60f
10:04 3.5ft 6s 9 11 mph 1011.1mb 53f 62f
9:04 3.5ft 8s 9 9 mph 1010.4mb 53f 62f
8:04 3.5ft 6s 9 11 mph 1009.7mb 53f 63f
7:04 3.5ft 6s 9 11 mph 1008.9mb 53f 63f
6:04 3.5ft 6s 9 11 mph 1008mb 53f 61f
5:04 3.5ft 6s 9 11 mph 1007.9mb 53f 62f
4:04 3.5ft 8s 11 13 mph 1008mb 53f 59f
3:04 3.5ft 6s 11 13 mph 1008.3mb 53f 60f
2:04 3.5ft 6s 13 20 mph 1008.7mb 53f 64f
1:04 4ft 6s 16 20 mph 1008.1mb 53f 59f
12:04 3.5ft 6s 16 18 mph 1008.7mb 53f 59f
11:04 3.5ft 6s 13 13 mph 1008.9mb 53f 57f
10:04 4ft 6s 13 16 mph 1008.9mb 53f 57f
9:04 4.5ft 6s 13 16 mph 1009.1mb 54f 57f
8:04 4ft 6s 16 16 mph 1008.9mb 54f 58f
7:04 4.5ft 5s 18 20 mph 1009mb 53f 58f
6:04 4ft 6s 16 16 mph 1009mb 53f 58f
5:04 4.5ft 6s 16 18 mph 1009mb 52f 58f
4:04 4.5ft 6s 13 13 mph 1009.2mb 53f 58f
3:04 4.5ft 6s 18 18 mph 1009mb 53f 59f
2:04 4.5ft 6s 13 16 mph 1008.9mb 53f 58f
1:04 4.5ft 8s 13 16 mph 1009.2mb 53f 59f
12:04 4.5ft 6s 11 11 mph 1009.7mb 54f 58f
Mo 06/19 11:04 5ft 6s 13 16 mph 1009.1mb 55f 60f
10:04 4.5ft 6s 13 16 mph 1009.7mb 55f 60f
9:04 5ft 6s 16 20 mph 1009.4mb 55f 60f
8:04 5.5ft 6s 22 25 mph 1008.4mb 56f 63f
7:04 5ft 8s 22 27 mph 1007.8mb 56f 63f
6:04 6ft 6s 22 27 mph 1007.8mb 56f 63f
5:04 5ft 8s 22 27 mph 1007.5mb 56f 62f
4:04 5ft 6s 22 25 mph 1008.2mb 56f 62f
3:04 4.5ft 6s 20 22 mph 1008.5mb 56f 62f
2:04 4.5ft 6s 16 18 mph 1009mb 56f 61f
1:04 4ft 8s 18 20 mph 1009.5mb 56f 61f
12:04 4.5ft 6s 16 18 mph 1009.8mb 55f 60f
11:04 5ft 5s 16 18 mph 1009.8mb 55f 60f
10:04 5ft 6s 16 18 mph 1009.8mb 55f 60f
9:04 5ft 8s 16 16 mph 1009.8mb 54f 60f
8:04 4.5ft 6s 16 18 mph 1009.6mb 54f 60f
7:04 5ft 6s 16 20 mph 1009.2mb 54f 60f
6:04 5.5ft 8s 16 20 mph 1009mb 54f 60f
5:04 6ft 6s 16 20 mph 1008.7mb 55f 60f
4:04 5.5ft 8s 20 22 mph 1008.1mb 55f 61f
3:04 5.5ft 8s 16 18 mph 1008.9mb 55f 61f
2:04 5ft 8s 16 18 mph 1008.9mb 55f 60f
1:04 4.5ft 8s 20 22 mph 1009mb 55f 61f
12:04 5ft 8s 18 22 mph 1009.6mb 55f 61f
So 06/18 11:04 4.5ft 8s 20 22 mph 1008.6mb 56f 62f
9:04 5ft 6s 22 27 mph 1008.4mb 57f 62f
8:04 6ft 6s 25 29 mph 1007.8mb 58f 64f
7:04 5ft 8s 22 27 mph 1007.8mb 58f 64f
6:04 5ft 8s 20 22 mph 1007.8mb 58f 64f
5:04 5ft 8s 22 25 mph 1008.1mb 59f 64f
4:04 4.5ft 8s 18 20 mph 1008.9mb 59f 63f
3:04 4.5ft 8s 20 22 mph 1009.3mb 59f 64f